Time;durP1;ratioP1;P1;durP2;ratioP2;P2;SDS_P1;SDS_P2;PMS_P1;PMS_P2;Temp;Humidity;BMP_temperature;BMP_pressure;BME280_temperature;BME280_humidity;BME280_pressure;Samples;Min_cycle;Max_cycle;Signal;HPM_P1;HPM_P2
2023/05/18 00:01:05;;;;;;;8.65;2.78;;;13.00;91.90;;;;;;4204397;28;20123;-56
2023/05/18 00:03:07;;;;;;;7.25;2.47;;;13.00;91.90;;;;;;4213615;28;20321;-56
2023/05/18 00:05:09;;;;;;;12.55;3.08;;;13.10;92.10;;;;;;4201985;28;20049;-55
2023/05/18 00:07:13;;;;;;;8.55;3.13;;;13.00;92.00;;;;;;4213684;28;20406;-54
2023/05/18 00:09:17;;;;;;;9.97;2.50;;;13.10;92.10;;;;;;4210369;28;20048;-54
2023/05/18 00:11:19;;;;;;;8.10;2.70;;;13.20;92.10;;;;;;4204439;28;20510;-54
2023/05/18 00:13:21;;;;;;;7.18;2.72;;;13.20;91.90;;;;;;4213597;28;20374;-54
2023/05/18 00:15:23;;;;;;;10.43;3.30;;;13.20;91.90;;;;;;4201708;28;20102;-53
2023/05/18 00:17:25;;;;;;;9.32;3.22;;;13.10;92.10;;;;;;4210641;28;20047;-54
2023/05/18 00:19:28;;;;;;;10.07;2.67;;;13.10;92.00;;;;;;4213128;28;20513;-53
2023/05/18 00:21:32;;;;;;;8.20;2.55;;;13.00;92.10;;;;;;4206023;28;20473;-55
2023/05/18 00:23:34;;;;;;;6.63;2.38;;;12.90;92.30;;;;;;4216541;28;20040;-54
2023/05/18 00:25:37;;;;;;;8.73;2.90;;;13.00;92.90;;;;;;4208241;28;20055;-53
2023/05/18 00:27:40;;;;;;;10.13;2.72;;;13.00;92.50;;;;;;4215439;28;20139;-54
2023/05/18 00:29:42;;;;;;;8.35;2.70;;;13.00;92.30;;;;;;4214620;28;20044;-54
2023/05/18 00:31:44;;;;;;;7.35;2.22;;;12.90;92.30;;;;;;4204927;28;20052;-54
2023/05/18 00:33:46;;;;;;;8.23;3.00;;;12.90;92.60;;;;;;4212581;28;20041;-53
2023/05/18 00:35:48;;;;;;;8.73;2.58;;;12.80;92.70;;;;;;4207732;28;20036;-53
2023/05/18 00:37:50;;;;;;;7.43;2.47;;;12.90;93.00;;;;;;4203720;28;20044;-53
2023/05/18 00:39:52;;;;;;;11.00;3.17;;;12.90;92.80;;;;;;4214321;28;20098;-53
2023/05/18 00:41:56;;;;;;;9.32;3.00;;;12.90;93.10;;;;;;4204500;28;20131;-53
2023/05/18 00:43:59;;;;;;;11.40;2.85;;;12.90;92.80;;;;;;4215729;28;20525;-53
2023/05/18 00:46:01;;;;;;;7.03;2.92;;;12.90;92.70;;;;;;4207998;28;20079;-53
2023/05/18 00:48:03;;;;;;;6.38;2.47;;;12.80;93.10;;;;;;4210101;28;20075;-53
2023/05/18 00:50:07;;;;;;;9.20;2.92;;;12.80;93.00;;;;;;4214232;28;20040;-53
2023/05/18 00:52:09;;;;;;;6.05;2.65;;;12.80;93.20;;;;;;4204615;28;20607;-55
2023/05/18 00:54:11;;;;;;;8.63;3.05;;;12.80;93.00;;;;;;4216279;28;20055;-53
2023/05/18 00:56:14;;;;;;;6.38;2.97;;;12.80;93.00;;;;;;4209284;28;20097;-53
2023/05/18 00:58:17;;;;;;;6.18;2.60;;;12.90;92.80;;;;;;4208519;28;20040;-54
2023/05/18 01:00:20;;;;;;;14.32;3.00;;;12.80;93.40;;;;;;4214686;28;20059;-53
2023/05/18 01:02:22;;;;;;;10.13;3.15;;;12.80;93.30;;;;;;4210118;28;20127;-54
2023/05/18 01:04:26;;;;;;;5.22;2.28;;;12.80;93.20;;;;;;4199306;28;20048;-53
2023/05/18 01:06:34;;;;;;;8.23;2.83;;;12.60;93.60;;;;;;4204245;28;20044;-54
2023/05/18 01:08:37;;;;;;;13.85;3.13;;;12.70;93.70;;;;;;4203863;28;20094;-54
2023/05/18 01:10:42;;;;;;;9.85;3.38;;;12.70;93.30;;;;;;4200339;28;20051;-54
2023/05/18 01:12:48;;;;;;;9.82;3.05;;;12.60;93.30;;;;;;4198168;28;20143;-54
2023/05/18 01:15:02;;;;;;;12.25;3.28;;;12.50;93.30;;;;;;4200549;28;20067;-55
2023/05/18 01:17:15;;;;;;;11.10;3.17;;;12.50;93.50;;;;;;4207473;28;20046;-55
2023/05/18 01:19:42;;;;;;;11.57;2.80;;;12.50;93.40;;;;;;4201015;28;20136;-57
2023/05/18 01:21:56;;;;;;;10.07;3.42;;;12.50;93.50;;;;;;4201760;28;20040;-56
2023/05/18 01:24:14;;;;;;;6.10;3.10;;;12.30;93.70;;;;;;4205859;28;20051;-56
2023/05/18 01:26:28;;;;;;;12.40;3.22;;;12.30;93.60;;;;;;4205040;28;20048;-56
2023/05/18 01:28:32;;;;;;;12.57;3.55;;;12.30;93.80;;;;;;4208500;28;20045;-55
2023/05/18 01:30:37;;;;;;;9.75;3.20;;;12.20;93.90;;;;;;4197996;28;20044;-57
2023/05/18 01:32:41;;;;;;;9.02;2.65;;;12.10;94.10;;;;;;4206642;28;20451;-57
2023/05/18 01:34:43;;;;;;;9.60;3.08;;;12.10;94.20;;;;;;4214532;28;20075;-57
2023/05/18 01:36:45;;;;;;;10.75;3.03;;;12.10;94.10;;;;;;4213240;28;20048;-57
2023/05/18 01:38:47;;;;;;;10.05;3.10;;;12.00;94.00;;;;;;4206870;28;20067;-53
2023/05/18 01:40:58;;;;;;;12.60;3.47;;;12.00;94.30;;;;;;4215838;28;20140;-52
2023/05/18 01:43:06;;;;;;;9.68;3.50;;;11.90;94.10;;;;;;4207696;28;20045;-56
2023/05/18 01:45:15;;;;;;;11.13;3.45;;;11.80;94.40;;;;;;4212561;28;20040;-54
2023/05/18 01:47:17;;;;;;;9.52;3.60;;;11.80;94.50;;;;;;4214880;28;20040;-62
2023/05/18 01:49:26;;;;;;;8.68;3.22;;;11.80;94.40;;;;;;4202731;28;20040;-53
2023/05/18 01:51:32;;;;;;;9.52;3.40;;;11.70;94.60;;;;;;4215110;28;20117;-54
2023/05/18 01:53:38;;;;;;;7.25;3.38;;;11.70;94.60;;;;;;4204792;28;20130;-53
2023/05/18 01:55:41;;;;;;;13.63;3.75;;;11.80;94.60;;;;;;4213275;28;20556;-54
2023/05/18 01:57:45;;;;;;;11.88;3.92;;;11.70;94.60;;;;;;4212350;28;20066;-53
2023/05/18 01:59:50;;;;;;;11.88;3.65;;;11.70;94.60;;;;;;4204204;28;20449;-53
2023/05/18 02:01:52;;;;;;;12.80;3.70;;;11.70;94.50;;;;;;4196921;28;20060;-53
2023/05/18 02:04:00;;;;;;;12.38;4.18;;;11.70;94.60;;;;;;4203734;28;20059;-53
2023/05/18 02:06:03;;;;;;;12.75;3.72;;;11.60;94.70;;;;;;4213535;28;20063;-53
2023/05/18 02:08:05;;;;;;;10.13;3.70;;;11.70;94.70;;;;;;4211916;28;20060;-53
2023/05/18 02:10:08;;;;;;;11.82;3.60;;;11.50;94.70;;;;;;4203379;28;20050;-53
2023/05/18 02:12:10;;;;;;;10.05;3.47;;;11.50;94.90;;;;;;4214724;28;20050;-53
2023/05/18 02:14:12;;;;;;;10.27;3.60;;;11.50;94.80;;;;;;4204815;28;20079;-54
2023/05/18 02:16:16;;;;;;;14.80;4.10;;;11.40;95.00;;;;;;4211936;28;20453;-53
2023/05/18 02:18:18;;;;;;;11.98;4.00;;;11.40;94.90;;;;;;4212506;28;20541;-54
2023/05/18 02:20:20;;;;;;;13.13;4.28;;;11.40;95.00;;;;;;4203520;28;20044;-55
2023/05/18 02:22:22;;;;;;;10.75;3.80;;;11.40;95.00;;;;;;4214903;28;20127;-54
2023/05/18 02:24:24;;;;;;;17.85;3.88;;;11.30;95.20;;;;;;4188185;28;20041;-55
2023/05/18 02:26:26;;;;;;;13.13;4.13;;;11.30;95.30;;;;;;4210755;28;20047;-54
2023/05/18 02:28:28;;;;;;;10.57;4.07;;;11.30;95.30;;;;;;4211482;28;20456;-53
2023/05/18 02:30:32;;;;;;;11.75;4.50;;;11.30;95.30;;;;;;4208973;28;20120;-54
2023/05/18 02:32:37;;;;;;;8.27;3.67;;;11.30;95.30;;;;;;4197714;28;20053;-58
2023/05/18 02:34:40;;;;;;;11.80;4.28;;;11.40;95.40;;;;;;4205052;28;20051;-53
2023/05/18 02:36:44;;;;;;;8.10;3.45;;;11.30;95.20;;;;;;4202251;28;20072;-53
2023/05/18 02:38:47;;;;;;;12.87;4.27;;;11.40;95.40;;;;;;4204092;28;20047;-53
2023/05/18 02:40:49;;;;;;;13.30;4.18;;;11.30;95.40;;;;;;4202402;28;20074;-53
2023/05/18 02:42:52;;;;;;;14.20;5.00;;;11.30;95.50;;;;;;4213475;28;20102;-54
2023/05/18 02:44:55;;;;;;;12.10;3.70;;;11.40;95.30;;;;;;4207295;28;20135;-52
2023/05/18 02:46:57;;;;;;;10.52;4.03;;;11.20;95.60;;;;;;4208452;28;20148;-51
2023/05/18 02:49:00;;;;;;;12.50;4.45;;;11.30;95.60;;;;;;4211297;28;20044;-54
2023/05/18 02:51:02;;;;;;;10.48;4.15;;;11.30;95.40;;;;;;4202639;28;20044;-53
2023/05/18 02:53:04;;;;;;;13.82;4.90;;;11.40;95.30;;;;;;4213998;28;20417;-54
2023/05/18 02:55:07;;;;;;;17.08;4.82;;;11.40;95.50;;;;;;4207999;28;20067;-55
2023/05/18 02:57:10;;;;;;;16.15;4.82;;;11.30;95.20;;;;;;4207223;28;20435;-55
2023/05/18 02:59:13;;;;;;;13.60;4.70;;;11.30;95.30;;;;;;4212223;28;20101;-54
2023/05/18 03:01:15;;;;;;;14.23;5.05;;;11.20;95.40;;;;;;4201672;28;20049;-54
2023/05/18 03:03:17;;;;;;;12.77;4.97;;;11.10;95.70;;;;;;4214236;28;20055;-54
2023/05/18 03:05:22;;;;;;;12.27;4.53;;;11.10;95.60;;;;;;4209197;28;20040;-53
2023/05/18 03:07:26;;;;;;;12.38;4.45;;;11.20;95.60;;;;;;4206373;28;20036;-53
2023/05/18 03:09:28;;;;;;;15.25;4.80;;;11.20;95.70;;;;;;4212323;28;20541;-54
2023/05/18 03:11:30;;;;;;;16.58;4.80;;;11.20;95.60;;;;;;4200859;28;20076;-53
2023/05/18 03:13:32;;;;;;;13.23;4.93;;;11.20;95.50;;;;;;4214193;28;20056;-54
2023/05/18 03:15:36;;;;;;;12.98;4.40;;;11.20;95.70;;;;;;4210600;28;20118;-54
2023/05/18 03:17:39;;;;;;;18.30;5.18;;;11.20;95.60;;;;;;4205918;28;20048;-55
2023/05/18 03:19:41;;;;;;;12.77;4.97;;;11.10;95.50;;;;;;4213816;28;20078;-55
2023/05/18 03:21:45;;;;;;;11.18;4.78;;;11.10;95.80;;;;;;4202449;28;20048;-53
2023/05/18 03:23:47;;;;;;;14.05;4.85;;;11.10;95.70;;;;;;4213648;28;20043;-54
2023/05/18 03:25:54;;;;;;;13.27;4.90;;;11.10;95.60;;;;;;4211848;28;20120;-54
2023/05/18 03:27:57;;;;;;;12.85;4.30;;;11.20;95.60;;;;;;4205111;28;20058;-54
2023/05/18 03:29:59;;;;;;;9.98;4.50;;;11.20;95.80;;;;;;4196657;28;20044;-54
2023/05/18 03:32:01;;;;;;;14.50;5.30;;;11.10;95.80;;;;;;4208085;28;20059;-53
2023/05/18 03:34:03;;;;;;;15.25;5.13;;;11.10;95.70;;;;;;4203954;28;20115;-56
2023/05/18 03:36:06;;;;;;;16.83;5.60;;;11.10;95.70;;;;;;4209378;28;20429;-57
2023/05/18 03:38:09;;;;;;;17.73;5.60;;;11.10;95.60;;;;;;4191369;28;20475;-56
2023/05/18 03:40:13;;;;;;;14.98;5.20;;;11.10;95.70;;;;;;4213249;28;20040;-57
2023/05/18 03:42:16;;;;;;;17.58;4.97;;;11.00;95.90;;;;;;4202126;28;20084;-57
2023/05/18 03:44:18;;;;;;;15.38;4.93;;;11.10;95.80;;;;;;4211756;28;20097;-58
2023/05/18 03:46:20;;;;;;;14.15;5.00;;;11.00;95.70;;;;;;4211563;28;20040;-57
2023/05/18 03:48:22;;;;;;;14.50;4.35;;;11.10;95.70;;;;;;4201121;28;20094;-56
2023/05/18 03:50:24;;;;;;;12.45;5.35;;;11.10;95.70;;;;;;4213272;28;20119;-56
2023/05/18 03:52:28;;;;;;;14.93;5.45;;;11.10;95.50;;;;;;4203440;28;20037;-57
2023/05/18 03:54:32;;;;;;;14.45;4.90;;;11.00;95.70;;;;;;4210259;28;20378;-57
2023/05/18 03:56:34;;;;;;;12.15;3.95;;;11.00;95.60;;;;;;4211906;28;20513;-56
2023/05/18 03:58:36;;;;;;;17.33;5.43;;;11.00;95.70;;;;;;4200941;28;20050;-56
2023/05/18 04:00:39;;;;;;;14.18;5.20;;;11.00;95.70;;;;;;4212950;28;20041;-56
2023/05/18 04:02:41;;;;;;;14.65;5.15;;;10.90;95.70;;;;;;4209495;28;20122;-54
2023/05/18 04:04:46;;;;;;;14.52;5.60;;;10.90;95.90;;;;;;4200579;28;20102;-54
2023/05/18 04:06:50;;;;;;;14.07;5.40;;;10.90;95.90;;;;;;4198740;28;20044;-55
2023/05/18 04:08:52;;;;;;;12.45;5.45;;;10.90;95.70;;;;;;4200858;28;20096;-56
2023/05/18 04:10:56;;;;;;;14.82;5.68;;;11.00;96.00;;;;;;4213069;28;20111;-56
2023/05/18 04:12:58;;;;;;;18.55;5.43;;;11.00;95.70;;;;;;4205053;28;20455;-53
2023/05/18 04:15:00;;;;;;;17.02;6.13;;;11.00;95.80;;;;;;4209037;28;20078;-57
2023/05/18 04:17:03;;;;;;;14.57;5.60;;;11.00;95.70;;;;;;4211529;28;20048;-57
2023/05/18 04:19:06;;;;;;;18.45;6.38;;;10.90;95.60;;;;;;4200680;28;20040;-57
2023/05/18 04:21:10;;;;;;;19.92;6.10;;;10.80;95.80;;;;;;4212837;28;20079;-54
2023/05/18 04:23:12;;;;;;;17.30;5.22;;;10.80;95.90;;;;;;4206123;28;20477;-55
2023/05/18 04:25:14;;;;;;;16.88;5.55;;;10.90;95.90;;;;;;4207784;28;20165;-53
2023/05/18 04:27:19;;;;;;;13.32;5.60;;;10.80;95.90;;;;;;4212278;28;20076;-53
2023/05/18 04:29:21;;;;;;;14.50;6.70;;;10.90;96.10;;;;;;4206690;28;20140;-53
2023/05/18 04:31:25;;;;;;;12.15;5.50;;;10.80;95.80;;;;;;4196215;28;20080;-53
2023/05/18 04:33:28;;;;;;;13.40;6.03;;;10.90;95.90;;;;;;4201035;28;20044;-53
2023/05/18 04:35:30;;;;;;;20.05;6.65;;;10.90;95.80;;;;;;4206728;28;20048;-52
2023/05/18 04:37:33;;;;;;;12.95;5.80;;;10.90;95.80;;;;;;4211964;28;20109;-54
2023/05/18 04:39:38;;;;;;;;;;;10.90;95.60;;;;;;4200788;28;20115;-52
2023/05/18 04:41:44;;;;;;;15.35;5.90;;;10.90;95.80;;;;;;4213062;28;19924;-54
2023/05/18 04:43:51;;;;;;;14.00;6.05;;;11.00;96.10;;;;;;4206413;28;20062;-56
2023/05/18 04:45:53;;;;;;;21.25;7.25;;;10.90;95.90;;;;;;4207248;28;20143;-56
2023/05/18 04:47:57;;;;;;;21.92;6.35;;;11.00;95.70;;;;;;4211154;28;20040;-57
2023/05/18 04:49:59;;;;;;;14.88;6.25;;;11.00;95.60;;;;;;4200281;28;20044;-55
2023/05/18 04:52:01;;;;;;;15.02;6.10;;;11.10;95.60;;;;;;4213196;28;20537;-56
2023/05/18 04:54:05;;;;;;;28.52;7.05;;;11.10;95.70;;;;;;4207034;28;20550;-56
2023/05/18 04:56:07;;;;;;;21.08;6.72;;;11.20;95.60;;;;;;4206491;28;20071;-56
2023/05/18 04:58:09;;;;;;;15.50;6.78;;;11.10;95.50;;;;;;4212525;28;20047;-56
2023/05/18 05:00:14;;;;;;;11.80;5.90;;;11.10;95.40;;;;;;4200229;28;20401;-57
2023/05/18 05:02:16;;;;;;;14.70;6.80;;;11.20;95.50;;;;;;4213224;28;20127;-56
2023/05/18 05:04:19;;;;;;;19.35;6.93;;;11.30;95.40;;;;;;4207248;28;20409;-56
2023/05/18 05:06:21;;;;;;;15.30;6.53;;;11.30;95.50;;;;;;4207043;28;20043;-57
2023/05/18 05:08:23;;;;;;;20.50;8.07;;;11.40;95.10;;;;;;4214780;28;20238;-56
2023/05/18 05:10:27;;;;;;;20.27;7.38;;;11.40;94.90;;;;;;4211072;28;20044;-56
2023/05/18 05:12:29;;;;;;;15.52;6.03;;;11.30;95.00;;;;;;4198900;28;20040;-56
2023/05/18 05:14:31;;;;;;;18.30;6.63;;;11.30;95.10;;;;;;4202468;28;20394;-56
2023/05/18 05:16:35;;;;;;;14.23;6.55;;;11.50;95.30;;;;;;4189917;28;20053;-56
2023/05/18 05:18:37;;;;;;;17.30;6.95;;;11.50;95.00;;;;;;4197631;28;20538;-56
2023/05/18 05:20:39;;;;;;;16.55;6.57;;;11.50;95.00;;;;;;4210034;28;20055;-56
2023/05/18 05:22:41;;;;;;;18.02;6.43;;;11.50;94.90;;;;;;4199659;28;20466;-56
2023/05/18 05:24:44;;;;;;;19.38;6.07;;;11.40;94.70;;;;;;4200985;28;20064;-57
2023/05/18 05:26:46;;;;;;;15.07;6.15;;;11.30;95.00;;;;;;4215402;28;20048;-56
2023/05/18 05:28:48;;;;;;;19.58;7.38;;;11.30;95.00;;;;;;4214383;28;20174;-57
2023/05/18 05:30:50;;;;;;;12.93;6.43;;;11.50;95.00;;;;;;4204560;28;20070;-54
2023/05/18 05:32:53;;;;;;;17.90;7.28;;;11.50;94.70;;;;;;4213381;28;20048;-53
2023/05/18 05:34:55;;;;;;;20.45;6.50;;;11.50;94.90;;;;;;4202833;28;20048;-55
2023/05/18 05:36:57;;;;;;;14.02;6.30;;;11.50;94.90;;;;;;4203925;28;20064;-52
2023/05/18 05:39:00;;;;;;;15.93;6.50;;;11.40;94.80;;;;;;4203174;28;20051;-56
2023/05/18 05:41:02;;;;;;;19.63;6.18;;;11.50;94.70;;;;;;4207085;28;20052;-53
2023/05/18 05:43:05;;;;;;;22.33;7.53;;;11.50;94.90;;;;;;4184215;28;20148;-52
2023/05/18 05:45:08;;;;;;;15.15;6.93;;;11.50;94.50;;;;;;4199572;28;20043;-62
2023/05/18 05:47:10;;;;;;;20.33;7.35;;;11.50;94.70;;;;;;4191841;28;20045;-53
2023/05/18 05:49:13;;;;;;;19.98;7.00;;;11.40;94.90;;;;;;4197297;28;20053;-55
2023/05/18 05:51:15;;;;;;;16.13;6.63;;;11.50;94.80;;;;;;4206055;28;20044;-55
2023/05/18 05:53:18;;;;;;;16.40;7.20;;;11.40;94.80;;;;;;4202586;28;20482;-56
2023/05/18 05:55:21;;;;;;;18.77;6.82;;;11.50;94.70;;;;;;4199655;28;20501;-55
2023/05/18 05:57:23;;;;;;;18.25;7.05;;;11.70;94.70;;;;;;4209406;28;20036;-56
2023/05/18 05:59:25;;;;;;;17.83;6.25;;;11.80;94.40;;;;;;4196954;28;20040;-55
2023/05/18 06:01:27;;;;;;;16.08;6.50;;;12.00;94.70;;;;;;4205124;28;20048;-56
2023/05/18 06:03:30;;;;;;;13.93;6.22;;;12.00;94.30;;;;;;4203496;28;20139;-52
2023/05/18 06:05:37;;;;;;;21.90;6.68;;;12.10;94.40;;;;;;4199623;28;20051;-51
2023/05/18 06:07:39;;;;;;;19.60;8.13;;;12.10;94.10;;;;;;4209930;28;20036;-52
2023/05/18 06:09:41;;;;;;;16.58;6.43;;;12.10;93.60;;;;;;4197136;28;20087;-52
2023/05/18 06:11:43;;;;;;;17.55;6.88;;;12.00;93.80;;;;;;4204282;28;20533;-52
2023/05/18 06:13:46;;;;;;;17.70;7.15;;;12.10;93.60;;;;;;4204290;28;20059;-55
2023/05/18 06:15:48;;;;;;;18.67;6.50;;;12.10;94.00;;;;;;4198973;28;20045;-52
2023/05/18 06:17:50;;;;;;;18.02;6.65;;;12.10;93.50;;;;;;4208914;28;20048;-55
2023/05/18 06:19:52;;;;;;;18.30;6.47;;;12.20;93.60;;;;;;4179168;28;20048;-55
2023/05/18 06:21:56;;;;;;;21.63;6.97;;;12.30;93.70;;;;;;4202828;28;20050;-55
2023/05/18 06:24:00;;;;;;;15.80;6.07;;;12.40;93.50;;;;;;4205995;28;20509;-55
2023/05/18 06:26:02;;;;;;;16.35;6.35;;;12.60;94.00;;;;;;4203834;28;20040;-56
2023/05/18 06:28:04;;;;;;;20.27;6.88;;;12.70;93.40;;;;;;4203068;28;20437;-55
2023/05/18 06:30:09;;;;;;;23.83;7.45;;;12.80;93.00;;;;;;4195789;28;20051;-54
2023/05/18 06:32:12;;;;;;;21.67;6.78;;;12.90;92.80;;;;;;4209415;28;20132;-57
2023/05/18 06:34:14;;;;;;;18.58;6.85;;;12.90;92.40;;;;;;4198836;28;20128;-56
2023/05/18 06:36:16;;;;;;;16.17;5.65;;;12.90;92.60;;;;;;4198265;28;20052;-53
2023/05/18 06:38:20;;;;;;;16.92;6.10;;;13.00;92.60;;;;;;4204462;28;20136;-55
2023/05/18 06:40:22;;;;;;;21.42;6.45;;;13.10;93.00;;;;;;4196816;28;20124;-54
2023/05/18 06:42:24;;;;;;;24.67;6.18;;;13.20;92.50;;;;;;4200584;28;20068;-53
2023/05/18 06:44:29;;;;;;;18.00;6.60;;;13.20;91.70;;;;;;4206805;28;20032;-56
2023/05/18 06:46:31;;;;;;;15.00;5.93;;;13.10;91.70;;;;;;4197005;28;20052;-54
2023/05/18 06:48:36;;;;;;;16.08;6.00;;;13.30;91.90;;;;;;4208534;28;20413;-56
2023/05/18 06:50:38;;;;;;;15.25;5.88;;;13.50;91.70;;;;;;4197679;28;20055;-52
2023/05/18 06:52:40;;;;;;;20.30;6.43;;;13.60;91.30;;;;;;4200151;28;20044;-52
2023/05/18 06:54:44;;;;;;;16.88;5.72;;;13.60;91.30;;;;;;4207010;28;20131;-53
2023/05/18 06:56:47;;;;;;;16.85;5.82;;;13.70;91.40;;;;;;4197670;28;20068;-52
2023/05/18 06:58:50;;;;;;;19.67;7.10;;;13.80;91.00;;;;;;4207121;28;20062;-53
2023/05/18 07:00:54;;;;;;;15.80;5.60;;;13.90;91.10;;;;;;4198654;28;20490;-53
2023/05/18 07:02:56;;;;;;;12.10;4.72;;;14.00;91.00;;;;;;4199537;28;20102;-55
2023/05/18 07:05:00;;;;;;;14.55;5.38;;;14.10;91.10;;;;;;4207811;28;20131;-54
2023/05/18 07:07:02;;;;;;;19.08;5.80;;;14.20;91.10;;;;;;4197657;28;20403;-51
2023/05/18 07:09:06;;;;;;;13.93;5.97;;;14.20;90.80;;;;;;4197132;28;20057;-52
2023/05/18 07:11:10;;;;;;;16.77;5.85;;;14.30;90.70;;;;;;4211853;28;20044;-52
2023/05/18 07:13:12;;;;;;;14.90;5.03;;;14.40;90.50;;;;;;4212131;28;20074;-52
2023/05/18 07:15:15;;;;;;;19.30;5.72;;;14.60;90.40;;;;;;4202599;28;20083;-52
2023/05/18 07:17:17;;;;;;;14.77;6.18;;;14.60;90.40;;;;;;4213899;28;20054;-56
2023/05/18 07:19:19;;;;;;;14.65;5.70;;;14.70;90.60;;;;;;4203022;28;20040;-56
2023/05/18 07:21:22;;;;;;;11.57;4.95;;;14.90;90.20;;;;;;4210441;28;20063;-55
2023/05/18 07:23:23;;;;;;;20.50;6.65;;;15.00;90.20;;;;;;4212186;28;20078;-61
2023/05/18 07:25:26;;;;;;;15.52;5.18;;;15.00;89.70;;;;;;4202135;28;20055;-56
2023/05/18 07:27:30;;;;;;;19.95;6.30;;;15.10;89.50;;;;;;4213487;28;20044;-56
2023/05/18 07:29:33;;;;;;;15.13;5.20;;;15.10;89.90;;;;;;4207886;28;20455;-55
2023/05/18 07:31:37;;;;;;;22.70;6.22;;;15.20;89.50;;;;;;4183443;28;20077;-56
2023/05/18 07:33:39;;;;;;;;;;;15.00;88.00;;;;;;4199145;28;20518;-56
2023/05/18 07:35:42;;;;;;;21.55;6.50;;;15.00;89.00;;;;;;4202155;28;19981;-56
2023/05/18 07:37:44;;;;;;;14.90;5.70;;;15.10;89.60;;;;;;4213088;28;20048;-55
2023/05/18 07:39:46;;;;;;;17.48;5.25;;;15.20;89.30;;;;;;4199508;28;20079;-57
2023/05/18 07:41:48;;;;;;;15.68;5.80;;;15.20;89.10;;;;;;4207943;28;20055;-55
2023/05/18 07:43:52;;;;;;;17.42;6.05;;;15.40;88.50;;;;;;4211387;28;20056;-55
2023/05/18 07:45:54;;;;;;;19.38;5.88;;;15.60;88.70;;;;;;4201904;28;20128;-55
2023/05/18 07:47:57;;;;;;;21.92;6.13;;;15.70;88.10;;;;;;4213341;28;20048;-55
2023/05/18 07:49:59;;;;;;;20.73;6.78;;;15.60;87.20;;;;;;4205764;28;20482;-55
2023/05/18 07:52:01;;;;;;;16.70;6.13;;;15.60;87.50;;;;;;4207335;28;20050;-57
2023/05/18 07:54:04;;;;;;;18.17;6.18;;;15.40;85.50;;;;;;4212326;28;20067;-59
2023/05/18 07:56:07;;;;;;;15.13;6.50;;;15.50;86.30;;;;;;4201849;28;20378;-56
2023/05/18 07:58:09;;;;;;;16.27;5.40;;;15.60;87.70;;;;;;4213057;28;20212;-55
2023/05/18 08:00:16;;;;;;;16.10;6.00;;;15.70;88.60;;;;;;4207083;28;20044;-56
2023/05/18 08:02:18;;;;;;;14.10;4.78;;;15.70;88.20;;;;;;4206526;28;20052;-56
2023/05/18 08:04:21;;;;;;;18.23;5.45;;;16.00;88.60;;;;;;4212940;28;20040;-57
2023/05/18 08:06:23;;;;;;;15.20;6.10;;;16.10;87.50;;;;;;4201159;28;20041;-55
2023/05/18 08:08:25;;;;;;;17.00;5.43;;;16.20;87.60;;;;;;4213687;28;20194;-53
2023/05/18 08:10:27;;;;;;;21.92;5.80;;;16.10;86.20;;;;;;4207755;28;20119;-55
2023/05/18 08:12:29;;;;;;;19.48;6.13;;;16.20;87.00;;;;;;4204770;28;20044;-56
2023/05/18 08:14:32;;;;;;;17.40;5.70;;;16.20;84.20;;;;;;4213651;28;20503;-53
2023/05/18 08:16:37;;;;;;;18.17;5.85;;;16.30;85.40;;;;;;4211653;28;20044;-53
2023/05/18 08:18:39;;;;;;;19.15;6.32;;;16.50;85.40;;;;;;4197573;28;20045;-53
2023/05/18 08:20:42;;;;;;;22.75;5.32;;;16.30;83.00;;;;;;4199955;28;20044;-53
2023/05/18 08:22:44;;;;;;;20.17;6.03;;;16.10;84.10;;;;;;4205724;28;20418;-53
2023/05/18 08:24:48;;;;;;;15.75;4.53;;;16.20;84.20;;;;;;4196585;28;20045;-55
2023/05/18 08:26:51;;;;;;;18.65;5.10;;;16.40;85.20;;;;;;4210059;28;20044;-56
2023/05/18 08:28:54;;;;;;;15.80;5.45;;;16.50;84.30;;;;;;4196788;28;20044;-56
2023/05/18 08:30:56;;;;;;;15.10;4.80;;;16.50;82.60;;;;;;4198090;28;20045;-55
2023/05/18 08:33:00;;;;;;;21.75;5.32;;;16.60;82.00;;;;;;4205926;28;20114;-57
2023/05/18 08:35:03;;;;;;;21.08;5.15;;;16.60;80.30;;;;;;4211070;28;20080;-56
2023/05/18 08:37:05;;;;;;;18.40;5.47;;;16.40;80.10;;;;;;4208911;28;20052;-56
2023/05/18 08:39:08;;;;;;;16.05;4.60;;;16.20;79.80;;;;;;4209744;28;20101;-55
2023/05/18 08:41:18;;;;;;;14.40;4.63;;;16.30;81.10;;;;;;4213035;28;20409;-57
2023/05/18 08:43:22;;;;;;;20.55;4.82;;;16.40;80.00;;;;;;4207909;28;20093;-56
2023/05/18 08:45:34;;;;;;;23.42;4.97;;;16.60;80.80;;;;;;4219220;28;20413;-54
2023/05/18 08:47:37;;;;;;;26.55;5.72;;;16.90;80.30;;;;;;4206363;28;20040;-59
2023/05/18 08:49:41;;;;;;;16.45;5.05;;;16.80;80.20;;;;;;4217581;28;20130;-53
2023/05/18 08:51:45;;;;;;;19.52;5.43;;;16.70;80.70;;;;;;4213271;28;20123;-56
2023/05/18 08:53:52;;;;;;;23.35;5.15;;;16.50;79.10;;;;;;4208545;28;20048;-56
2023/05/18 08:55:56;;;;;;;19.80;5.55;;;16.60;80.30;;;;;;4217350;28;20109;-57
2023/05/18 08:58:00;;;;;;;20.50;5.63;;;16.70;79.40;;;;;;4211740;28;20040;-56
2023/05/18 09:00:04;;;;;;;16.65;4.78;;;16.70;78.30;;;;;;4198549;28;20054;-52
2023/05/18 09:02:07;;;;;;;16.23;5.53;;;16.50;77.40;;;;;;4184587;28;20041;-56
2023/05/18 09:04:09;;;;;;;18.38;4.50;;;16.40;78.30;;;;;;4207929;28;20051;-53
2023/05/18 09:06:14;;;;;;;14.00;5.40;;;16.50;78.80;;;;;;4199803;28;20409;-53
2023/05/18 09:08:17;;;;;;;20.73;4.78;;;16.50;78.20;;;;;;4193964;28;20174;-53
2023/05/18 09:10:20;;;;;;;19.73;5.15;;;16.30;77.80;;;;;;4198232;28;20045;-55
2023/05/18 09:12:23;;;;;;;14.15;5.18;;;16.40;79.70;;;;;;4202064;28;20482;-57
2023/05/18 09:14:26;;;;;;;20.60;4.90;;;16.30;79.40;;;;;;4208155;28;20398;-54
2023/05/18 09:16:29;;;;;;;19.08;5.28;;;16.20;78.70;;;;;;4181411;28;20416;-55
2023/05/18 09:18:32;;;;;;;13.40;3.70;;;16.00;80.30;;;;;;4210142;28;20140;-55
2023/05/18 09:20:34;;;;;;;23.58;5.88;;;16.00;80.80;;;;;;4198752;28;20044;-55
2023/05/18 09:22:39;;;;;;;19.08;5.50;;;15.80;80.50;;;;;;4200999;28;20059;-55
2023/05/18 09:24:41;;;;;;;19.33;5.97;;;15.80;80.20;;;;;;4209642;28;20071;-55
2023/05/18 09:26:44;;;;;;;16.75;5.82;;;15.90;80.80;;;;;;4212845;28;20040;-56
2023/05/18 09:28:51;;;;;;;15.95;5.28;;;16.00;81.30;;;;;;4213381;28;20050;-54
2023/05/18 09:30:53;;;;;;;20.48;5.88;;;16.10;79.80;;;;;;4199158;28;20053;-56
2023/05/18 09:32:55;;;;;;;17.60;5.93;;;16.10;80.80;;;;;;4201104;28;20044;-60
2023/05/18 09:35:03;;;;;;;20.92;5.57;;;16.10;81.50;;;;;;4208074;28;20047;-55
2023/05/18 09:37:05;;;;;;;21.15;6.13;;;16.10;80.40;;;;;;4216117;28;20393;-57
2023/05/18 09:39:10;;;;;;;16.05;6.15;;;16.20;80.30;;;;;;4211001;28;20194;-56
2023/05/18 09:41:15;;;;;;;20.83;6.38;;;16.20;80.60;;;;;;4199259;28;20543;-55
2023/05/18 09:43:18;;;;;;;26.23;7.60;;;16.20;81.90;;;;;;4200722;28;20040;-54
2023/05/18 09:45:25;;;;;;;22.42;5.88;;;16.30;81.70;;;;;;4209078;28;20118;-53
2023/05/18 09:47:27;;;;;;;15.00;5.22;;;16.50;81.40;;;;;;4198810;28;20044;-52
2023/05/18 09:49:30;;;;;;;25.70;6.60;;;16.60;82.00;;;;;;4208559;28;20056;-53
2023/05/18 09:51:34;;;;;;;18.38;5.97;;;16.90;82.50;;;;;;4199539;28;20045;-53
2023/05/18 09:53:39;;;;;;;21.73;5.68;;;16.90;81.10;;;;;;4202607;28;20094;-54
2023/05/18 09:55:48;;;;;;;17.48;6.22;;;16.90;79.00;;;;;;4205020;28;20478;-54
2023/05/18 09:57:50;;;;;;;18.13;6.05;;;16.80;77.70;;;;;;4215238;28;20067;-54
2023/05/18 09:59:56;;;;;;;16.05;5.75;;;16.70;78.90;;;;;;4203636;28;20058;-53
2023/05/18 10:02:04;;;;;;;17.17;5.18;;;16.80;79.30;;;;;;4196465;28;20076;-53
2023/05/18 10:04:07;;;;;;;16.52;5.47;;;17.00;78.90;;;;;;4211610;28;20040;-53
2023/05/18 10:06:13;;;;;;;20.98;5.70;;;17.10;79.40;;;;;;4205905;28;20044;-55
2023/05/18 10:08:16;;;;;;;17.30;5.38;;;17.00;79.10;;;;;;4214852;28;20142;-54
2023/05/18 10:10:19;;;;;;;16.70;5.13;;;17.10;79.20;;;;;;4201477;28;20406;-54
2023/05/18 10:12:23;;;;;;;21.80;5.68;;;17.20;78.90;;;;;;4214596;28;20069;-53
2023/05/18 10:14:29;;;;;;;19.52;5.45;;;17.30;78.50;;;;;;4211735;28;20046;-53
2023/05/18 10:16:32;;;;;;;18.13;5.88;;;17.30;78.80;;;;;;4206717;28;20050;-54
2023/05/18 10:18:36;;;;;;;21.50;5.60;;;17.40;78.20;;;;;;4197199;28;20110;-54
2023/05/18 10:20:39;;;;;;;15.23;5.30;;;17.40;77.60;;;;;;4209350;28;20048;-58
2023/05/18 10:22:42;;;;;;;20.13;5.47;;;17.40;76.70;;;;;;4180505;28;20417;-56
2023/05/18 10:24:49;;;;;;;21.25;5.53;;;17.40;76.70;;;;;;4199118;28;20099;-56
2023/05/18 10:26:52;;;;;;;23.98;4.97;;;17.30;76.10;;;;;;4214749;28;20472;-57
2023/05/18 10:28:59;;;;;;;17.77;5.57;;;17.30;75.90;;;;;;4214379;28;20434;-56
2023/05/18 10:31:05;;;;;;;15.93;5.18;;;17.40;75.80;;;;;;4201062;28;20513;-57
2023/05/18 10:33:09;;;;;;;19.88;5.63;;;17.20;75.60;;;;;;4197715;28;20090;-57
2023/05/18 10:35:30;;;;;;;23.80;5.90;;;17.30;75.20;;;;;;4186771;28;20053;-58